Terminal Aerodrome Forecast
Issued by NWS Dodge City, KS

Home | Current Version | Previous Version | Graphics & Text | Print | Product List | Glossary On
Versions: 1 2 3 4 5 6 7 8 9 10 11 12 13 14 15 16 17 18 19 20 21 22 23 24 25 26 27 28 29 30 31 32
000
FTUS43 KDDC 281722
TAFDDC
TAF
KDDC 281722Z 2818/2918 34010KT P6SM FEW200
     FM290000 01012KT P6SM VCSH OVC070
     FM290200 01015G25KT 5SM SHRA OVC035
     FM290300 01017G30KT 4SM SHRA OVC010
     FM290600 01021G30KT 3SM -RA BR OVC008=

USA.gov is the U.S. government's official web portal to all federal, state and local government web resources and services.